createdAt,value
2019-04-11T00:00:31.684Z,444
2019-04-11T00:01:52.748Z,445
2019-04-11T00:03:01.338Z,444
2019-04-11T00:04:10.643Z,443
2019-04-11T00:05:18.848Z,443
2019-04-11T00:06:27.586Z,444
2019-04-11T00:07:34.867Z,444
2019-04-11T00:08:44.417Z,444
2019-04-11T00:09:52.659Z,444
2019-04-11T00:11:01.461Z,443
2019-04-11T00:12:10.397Z,444
2019-04-11T00:13:30.550Z,444
2019-04-11T00:14:44.163Z,443
2019-04-11T00:15:54.917Z,444
2019-04-11T00:17:03.661Z,444
2019-04-11T00:18:11.326Z,444
2019-04-11T00:19:19.264Z,443
2019-04-11T00:20:28.380Z,444
2019-04-11T00:21:35.658Z,443
2019-04-11T00:22:44.442Z,443
2019-04-11T00:23:52.591Z,444
2019-04-11T00:25:00.867Z,443
2019-04-11T00:26:09.335Z,445
2019-04-11T00:27:17.370Z,444
2019-04-11T00:28:27.750Z,444
2019-04-11T00:29:36.479Z,445
2019-04-11T00:30:45.095Z,444
2019-04-11T00:31:53.520Z,444
2019-04-11T00:33:02.735Z,444
2019-04-11T00:34:10.928Z,444
2019-04-11T00:35:19.686Z,444
2019-04-11T00:36:26.943Z,443
2019-04-11T00:37:36.750Z,444
2019-04-11T00:38:44.186Z,444
2019-04-11T00:39:54.073Z,443
2019-04-11T00:41:02.154Z,444
2019-04-11T00:42:12.402Z,443
2019-04-11T00:43:42.064Z,443
2019-04-11T00:44:52.420Z,444
2019-04-11T00:46:01.741Z,445
2019-04-11T00:47:10.793Z,444
2019-04-11T00:48:17.998Z,444
2019-04-11T00:49:27.213Z,444
2019-04-11T00:50:35.492Z,444
2019-04-11T00:51:44.851Z,445
2019-04-11T00:52:52.372Z,444
2019-04-11T00:54:02.582Z,444
2019-04-11T00:55:11.163Z,444
2019-04-11T00:56:19.722Z,445
2019-04-11T00:57:27.116Z,445
2019-04-11T00:58:35.992Z,445
2019-04-11T00:59:44.655Z,446
2019-04-11T01:01:07.651Z,446
2019-04-11T01:02:17.600Z,446
2019-04-11T01:03:26.305Z,445
2019-04-11T01:04:34.848Z,445
2019-04-11T01:05:42.262Z,445
2019-04-11T01:06:50.645Z,446
2019-04-11T01:08:00.100Z,446
2019-04-11T01:09:08.260Z,446
2019-04-11T01:10:18.628Z,445
2019-04-11T01:11:27.849Z,446
2019-04-11T01:12:36.455Z,447
2019-04-11T01:13:55.709Z,445
2019-04-11T01:15:05.423Z,447
2019-04-11T01:16:13.739Z,447
2019-04-11T01:17:23.238Z,446
2019-04-11T01:18:30.938Z,445
2019-04-11T01:19:39.111Z,445
2019-04-11T01:20:48.001Z,447
2019-04-11T01:21:57.848Z,447
2019-04-11T01:23:07.352Z,447
2019-04-11T01:24:17.697Z,448
2019-04-11T01:25:25.397Z,448
2019-04-11T01:26:33.512Z,448
2019-04-11T01:27:43.049Z,449
2019-04-11T01:28:51.933Z,448
2019-04-11T01:30:02.070Z,448
2019-04-11T01:31:09.990Z,447
2019-04-11T01:32:19.035Z,448
2019-04-11T01:33:25.969Z,449
2019-04-11T01:34:35.439Z,449
2019-04-11T01:35:45.656Z,448
2019-04-11T01:36:53.873Z,449
2019-04-11T01:38:02.448Z,449
2019-04-11T01:39:12.473Z,448
2019-04-11T01:40:19.845Z,447
2019-04-11T01:41:28.519Z,447
2019-04-11T01:42:37.587Z,448
2019-04-11T01:44:05.847Z,448
2019-04-11T01:45:15.369Z,448
2019-04-11T01:46:24.586Z,448
2019-04-11T01:47:32.723Z,448
2019-04-11T01:48:41.667Z,447
2019-04-11T01:49:49.265Z,446
2019-04-11T01:50:57.573Z,447
2019-04-11T01:52:07.037Z,447
2019-04-11T01:53:15.135Z,447
2019-04-11T01:54:23.709Z,447
2019-04-11T01:55:30.998Z,447
2019-04-11T01:56:39.131Z,447
2019-04-11T01:57:47.406Z,447
2019-04-11T01:58:55.715Z,447
2019-04-11T02:00:05.917Z,447
2019-04-11T02:01:14.423Z,447
2019-04-11T02:02:22.242Z,447
2019-04-11T02:03:29.450Z,448
2019-04-11T02:04:39.044Z,448
2019-04-11T02:05:49.394Z,447
2019-04-11T02:06:58.328Z,448
2019-04-11T02:08:05.585Z,448
2019-04-11T02:09:15.722Z,448
2019-04-11T02:10:23.067Z,448
2019-04-11T02:11:32.283Z,448
2019-04-11T02:12:41.437Z,447
2019-04-11T02:13:50.277Z,449
2019-04-11T02:14:59.678Z,448
2019-04-11T02:16:06.981Z,448
2019-04-11T02:17:16.765Z,448
2019-04-11T02:18:25.495Z,448
2019-04-11T02:19:34.351Z,448
2019-04-11T02:20:41.966Z,448
2019-04-11T02:21:50.136Z,448
2019-04-11T02:22:59.559Z,449
2019-04-11T02:24:07.764Z,448
2019-04-11T02:25:16.406Z,449
2019-04-11T02:26:23.655Z,448
2019-04-11T02:27:32.679Z,448
2019-04-11T02:28:40.889Z,449
2019-04-11T02:29:49.399Z,449
2019-04-11T02:30:57.984Z,449
2019-04-11T02:32:12.153Z,448
2019-04-11T02:33:21.575Z,448
2019-04-11T02:34:32.401Z,448
2019-04-11T02:35:46.964Z,449
2019-04-11T02:37:02.351Z,449
2019-04-11T02:38:16.454Z,448
2019-04-11T02:39:33.705Z,448
2019-04-11T02:40:47.905Z,449
2019-04-11T02:42:01.247Z,449
2019-04-11T02:43:15.744Z,449
2019-04-11T02:45:16.219Z,448
2019-04-11T02:47:15.495Z,448
2019-04-11T02:48:35.303Z,448
2019-04-11T02:49:47.633Z,448
2019-04-11T02:51:00.820Z,449
2019-04-11T02:52:13.357Z,449
2019-04-11T02:53:28.145Z,449
2019-04-11T02:54:43.022Z,449
2019-04-11T02:55:56.379Z,447
2019-04-11T02:57:09.841Z,448
2019-04-11T02:58:22.857Z,449
2019-04-11T02:59:32.499Z,450
2019-04-11T03:00:45.621Z,449
2019-04-11T03:01:53.994Z,449
2019-04-11T03:03:08.369Z,449
2019-04-11T03:04:22.545Z,448
2019-04-11T03:05:36.906Z,449
2019-04-11T03:06:49.450Z,449
2019-04-11T03:08:06.771Z,449
2019-04-11T03:09:24.577Z,448
2019-04-11T03:10:38.149Z,448
2019-04-11T03:11:49.350Z,449
2019-04-11T03:13:02.761Z,448
2019-04-11T03:14:20.614Z,449
2019-04-11T03:16:20.047Z,449
2019-04-11T03:18:02.711Z,449
2019-04-11T03:20:08.238Z,449
2019-04-11T03:21:46.354Z,450
2019-04-11T03:23:08.509Z,448
2019-04-11T03:24:26.344Z,449
2019-04-11T03:25:40.423Z,449
2019-04-11T03:26:54.799Z,450
2019-04-11T03:28:19.015Z,449
2019-04-11T03:29:38.297Z,449
2019-04-11T03:36:31.496Z,448
2019-04-11T03:39:43.342Z,448
2019-04-11T03:42:20.115Z,449
2019-04-11T03:44:08.403Z,449
2019-04-11T03:46:32.393Z,449
2019-04-11T03:48:55.517Z,448
2019-04-11T03:50:34.763Z,449
2019-04-11T03:51:48.692Z,449
2019-04-11T03:53:06.455Z,447
2019-04-11T03:54:18.981Z,448
2019-04-11T03:55:32.547Z,448
2019-04-11T03:56:43.124Z,449
2019-04-11T03:58:00.983Z,448
2019-04-11T03:59:17.239Z,448
2019-04-11T04:00:40.999Z,449
2019-04-11T04:01:51.806Z,448
2019-04-11T04:03:06.135Z,447
2019-04-11T04:04:23.386Z,448
2019-04-11T04:05:41.480Z,447
2019-04-11T04:06:52.676Z,448
2019-04-11T04:08:06.517Z,447
2019-04-11T04:09:20.840Z,448
2019-04-11T04:10:30.094Z,449
2019-04-11T04:11:42.684Z,448
2019-04-11T04:12:55.677Z,447
2019-04-11T04:14:05.247Z,448
2019-04-11T04:15:59.516Z,448
2019-04-11T04:17:27.625Z,449
2019-04-11T04:18:37.944Z,449
2019-04-11T04:19:51.668Z,449
2019-04-11T04:21:06.907Z,449
2019-04-11T04:22:24.523Z,449
2019-04-11T04:23:35.827Z,449
2019-04-11T04:24:51.064Z,448
2019-04-11T04:26:05.446Z,448
2019-04-11T04:27:23.144Z,449
2019-04-11T04:28:40.631Z,448
2019-04-11T04:30:01.532Z,449
2019-04-11T04:31:16.164Z,449
2019-04-11T04:32:27.851Z,448
2019-04-11T04:33:40.821Z,448
2019-04-11T04:34:53.731Z,449
2019-04-11T04:36:11.731Z,449
2019-04-11T04:37:27.190Z,449
2019-04-11T04:38:41.399Z,448
2019-04-11T04:40:26.602Z,449
2019-04-11T04:42:27.037Z,449
2019-04-11T04:43:45.028Z,448
2019-04-11T04:44:53.832Z,449
2019-04-11T04:46:57.999Z,449
2019-04-11T04:48:32.091Z,449
2019-04-11T04:49:43.488Z,449
2019-04-11T04:51:01.564Z,448
2019-04-11T04:52:20.635Z,449
2019-04-11T04:53:33.014Z,449
2019-04-11T04:54:42.118Z,449
2019-04-11T04:55:54.631Z,448
2019-04-11T04:57:07.117Z,449
2019-04-11T04:58:24.781Z,449
2019-04-11T04:59:39.945Z,449
2019-04-11T05:00:56.622Z,449
2019-04-11T05:02:12.805Z,449
2019-04-11T05:03:26.713Z,448
2019-04-11T05:04:38.152Z,449
2019-04-11T05:05:48.946Z,449
2019-04-11T05:07:00.952Z,449
2019-04-11T05:08:12.397Z,449
2019-04-11T05:09:23.496Z,448
2019-04-11T05:10:33.817Z,449
2019-04-11T05:11:46.506Z,448
2019-04-11T05:12:59.049Z,448
2019-04-11T05:14:08.099Z,448
2019-04-11T05:15:18.595Z,448
2019-04-11T05:16:27.240Z,447
2019-04-11T05:17:38.507Z,448
2019-04-11T05:18:50.244Z,447
2019-04-11T05:19:58.983Z,448
2019-04-11T05:21:06.334Z,447
2019-04-11T05:22:14.630Z,447
2019-04-11T05:23:23.492Z,447
2019-04-11T05:24:31.522Z,447
2019-04-11T05:25:39.979Z,447
2019-04-11T05:26:48.114Z,447
2019-04-11T05:27:56.428Z,446
2019-04-11T05:29:05.916Z,446
2019-04-11T05:30:13.117Z,446
2019-04-11T05:31:22.670Z,446
2019-04-11T05:32:31.194Z,446
2019-04-11T05:33:39.340Z,445
2019-04-11T05:34:46.608Z,445
2019-04-11T05:35:54.722Z,445
2019-04-11T05:37:03.935Z,445
2019-04-11T05:38:12.309Z,444
2019-04-11T05:39:20.935Z,444
2019-04-11T05:40:30.096Z,444
2019-04-11T05:41:48.665Z,444
2019-04-11T05:42:58.045Z,444
2019-04-11T05:44:12.516Z,444
2019-04-11T05:45:26.544Z,444
2019-04-11T05:46:59.432Z,444
2019-04-11T05:48:11.544Z,444
2019-04-11T05:49:23.679Z,443
2019-04-11T05:50:31.990Z,443
2019-04-11T05:51:47.977Z,443
2019-04-11T05:52:59.994Z,443
2019-04-11T05:54:12.717Z,442
2019-04-11T05:55:20.603Z,442
2019-04-11T05:56:28.772Z,442
2019-04-11T05:57:42.913Z,442
2019-04-11T05:58:53.489Z,442
2019-04-11T06:00:00.714Z,442
2019-04-11T06:01:15.055Z,441
2019-04-11T06:02:22.461Z,441
2019-04-11T06:03:30.724Z,442
2019-04-11T06:04:40.474Z,440
2019-04-11T06:05:47.765Z,440
2019-04-11T06:07:01.518Z,440
2019-04-11T06:08:19.613Z,440
2019-04-11T06:09:41.970Z,440
2019-04-11T06:10:50.432Z,439
2019-04-11T06:11:58.955Z,439
2019-04-11T06:13:06.159Z,439
2019-04-11T06:14:15.710Z,439
2019-04-11T06:15:24.983Z,438
2019-04-11T06:16:53.793Z,438
2019-04-11T06:18:05.313Z,438
2019-04-11T06:19:14.353Z,438
2019-04-11T06:20:25.028Z,437
2019-04-11T06:21:32.455Z,438
2019-04-11T06:22:42.157Z,436
2019-04-11T06:23:50.364Z,437
2019-04-11T06:25:00.572Z,436
2019-04-11T06:26:11.467Z,436
2019-04-11T06:27:19.924Z,436
2019-04-11T06:28:30.621Z,435
2019-04-11T06:29:37.603Z,435
2019-04-11T06:30:45.835Z,435
2019-04-11T06:31:53.181Z,435
2019-04-11T06:33:02.440Z,435
2019-04-11T06:34:11.254Z,435
2019-04-11T06:35:19.869Z,434
2019-04-11T06:36:29.980Z,434
2019-04-11T06:37:38.091Z,434
2019-04-11T06:38:47.075Z,433
2019-04-11T06:39:59.618Z,434
2019-04-11T06:41:10.326Z,434
2019-04-11T06:42:17.520Z,432
2019-04-11T06:43:27.738Z,433
2019-04-11T06:44:35.247Z,433
2019-04-11T06:45:43.898Z,432
2019-04-11T06:47:02.212Z,432
2019-04-11T06:48:13.546Z,432
2019-04-11T06:49:22.421Z,431
2019-04-11T06:50:29.649Z,431
2019-04-11T06:51:39.802Z,431
2019-04-11T06:52:47.044Z,431
2019-04-11T06:53:55.071Z,431
2019-04-11T06:55:05.042Z,431
2019-04-11T06:56:13.565Z,431
2019-04-11T06:57:22.082Z,431
2019-04-11T06:58:31.791Z,431
2019-04-11T06:59:40.672Z,431
2019-04-11T07:00:49.959Z,430
2019-04-11T07:02:21.315Z,430
2019-04-11T07:03:34.313Z,429
2019-04-11T07:04:42.362Z,429
2019-04-11T07:05:52.937Z,429
2019-04-11T07:07:02.027Z,429
2019-04-11T07:08:10.605Z,429
2019-04-11T07:09:17.814Z,428
2019-04-11T07:10:27.013Z,428
2019-04-11T07:11:36.186Z,428
2019-04-11T07:12:43.826Z,428
2019-04-11T07:13:51.028Z,429
2019-04-11T07:15:00.074Z,428
2019-04-11T07:16:07.374Z,428
2019-04-11T07:17:16.705Z,427
2019-04-11T07:18:25.291Z,428
2019-04-11T07:19:35.116Z,427
2019-04-11T07:20:43.472Z,427
2019-04-11T07:21:52.403Z,427
2019-04-11T07:23:01.501Z,427
2019-04-11T07:24:08.878Z,428
2019-04-11T07:25:16.314Z,426
2019-04-11T07:26:27.307Z,428
2019-04-11T07:27:35.189Z,427
2019-04-11T07:28:44.778Z,426
2019-04-11T07:29:51.973Z,426
2019-04-11T07:31:00.318Z,425
2019-04-11T07:32:07.443Z,425
2019-04-11T07:33:18.057Z,425
2019-04-11T07:34:26.509Z,426
2019-04-11T07:35:40.272Z,426
2019-04-11T07:36:49.387Z,425
2019-04-11T07:37:58.505Z,426
2019-04-11T07:39:07.795Z,424
2019-04-11T07:40:18.315Z,425
2019-04-11T07:41:26.738Z,424
2019-04-11T07:42:39.049Z,424
2019-04-11T07:43:48.669Z,424
2019-04-11T07:44:58.008Z,424
2019-04-11T07:46:07.381Z,424
2019-04-11T07:47:26.672Z,423
2019-04-11T07:48:37.894Z,424
2019-04-11T07:49:45.999Z,423
2019-04-11T07:50:56.026Z,423
2019-04-11T07:52:06.700Z,424
2019-04-11T07:53:13.912Z,423
2019-04-11T07:54:22.319Z,422
2019-04-11T07:55:30.543Z,421
2019-04-11T07:56:38.960Z,421
2019-04-11T07:57:47.337Z,421
2019-04-11T07:58:56.909Z,422
2019-04-11T08:00:06.511Z,421
2019-04-11T08:01:16.778Z,421
2019-04-11T08:02:25.149Z,420
2019-04-11T08:03:33.264Z,419
2019-04-11T08:04:42.718Z,420
2019-04-11T08:05:51.226Z,421
2019-04-11T08:06:59.501Z,421
2019-04-11T08:08:10.968Z,420
2019-04-11T08:09:18.754Z,420
2019-04-11T08:10:27.026Z,420
2019-04-11T08:11:35.868Z,420
2019-04-11T08:12:42.670Z,420
2019-04-11T08:13:56.269Z,420
2019-04-11T08:15:04.869Z,420
2019-04-11T08:16:14.652Z,420
2019-04-11T08:17:42.829Z,418
2019-04-11T08:18:52.896Z,418
2019-04-11T08:20:00.615Z,418
2019-04-11T08:21:09.826Z,418
2019-04-11T08:22:19.003Z,419
2019-04-11T08:23:27.689Z,418
2019-04-11T08:24:36.569Z,419
2019-04-11T08:25:45.191Z,419
2019-04-11T08:26:53.515Z,418
2019-04-11T08:28:09.895Z,418
2019-04-11T08:29:22.184Z,418
2019-04-11T08:30:30.591Z,418
2019-04-11T08:31:40.256Z,418
2019-04-11T08:32:47.489Z,419
2019-04-11T08:33:55.561Z,418
2019-04-11T08:35:05.956Z,418
2019-04-11T08:36:14.220Z,416
2019-04-11T08:37:23.764Z,417
2019-04-11T08:38:31.915Z,417
2019-04-11T08:39:41.552Z,416
2019-04-11T08:40:51.275Z,416
2019-04-11T08:41:59.473Z,416
2019-04-11T08:43:07.746Z,416
2019-04-11T08:44:15.869Z,415
2019-04-11T08:45:25.788Z,416
2019-04-11T08:46:35.103Z,415
2019-04-11T08:47:57.552Z,416
2019-04-11T08:49:07.670Z,415
2019-04-11T22:00:06.905Z,437
2019-04-11T22:01:13.825Z,436
2019-04-11T22:02:25.403Z,436
2019-04-11T22:03:32.603Z,437
2019-04-11T22:04:39.803Z,437
2019-04-11T22:05:46.719Z,437
2019-04-11T22:06:53.636Z,437
2019-04-11T22:08:04.485Z,437
2019-04-11T22:09:11.680Z,437
2019-04-11T22:10:18.905Z,436
2019-04-11T22:11:26.105Z,436
2019-04-11T22:12:33.298Z,436
2019-04-11T22:13:41.861Z,437
2019-04-11T22:14:49.056Z,436
2019-04-11T22:15:56.251Z,437
2019-04-11T22:17:03.453Z,437
2019-04-11T22:18:10.089Z,437
2019-04-11T22:19:17.286Z,437
2019-04-11T22:20:24.481Z,436
2019-04-11T22:21:31.699Z,436
2019-04-11T22:22:38.890Z,437
2019-04-11T22:23:49.825Z,437
2019-04-11T22:24:59.556Z,436
2019-04-11T22:26:06.885Z,436
2019-04-11T22:27:14.083Z,437
2019-04-11T22:28:25.640Z,437
2019-04-11T22:29:32.849Z,436
2019-04-11T22:30:40.083Z,437
2019-04-11T22:31:47.282Z,436
2019-04-11T22:32:58.507Z,437
2019-04-11T22:34:05.704Z,437
2019-04-11T22:35:12.626Z,437
2019-04-11T22:36:19.821Z,437
2019-04-11T22:37:31.178Z,437
2019-04-11T22:38:38.377Z,437
2019-04-11T22:39:45.584Z,437
2019-04-11T22:40:52.517Z,438
2019-04-11T22:41:59.706Z,438
2019-04-11T22:43:09.116Z,438
2019-04-11T22:44:30.496Z,438
2019-04-11T22:45:39.289Z,439
2019-04-11T22:46:46.484Z,438
2019-04-11T22:47:53.406Z,438
2019-04-11T22:49:00.303Z,438
2019-04-11T22:50:11.259Z,438
2019-04-11T22:51:18.184Z,438
2019-04-11T22:52:25.383Z,438
2019-04-11T22:53:32.584Z,438
2019-04-11T22:54:42.220Z,437
2019-04-11T22:55:49.148Z,437
2019-04-11T22:56:56.347Z,436
2019-04-11T22:58:03.051Z,436
2019-04-11T22:59:14.581Z,436
2019-04-11T23:00:21.810Z,436
2019-04-11T23:01:29.008Z,436
2019-04-11T23:02:35.929Z,436
2019-04-11T23:03:46.664Z,435
2019-04-11T23:04:54.451Z,435
2019-04-11T23:06:01.648Z,434
2019-04-11T23:07:08.586Z,434
2019-04-11T23:08:20.409Z,434
2019-04-11T23:09:27.599Z,433
2019-04-11T23:10:34.808Z,432
2019-04-11T23:11:45.825Z,433
2019-04-11T23:12:53.024Z,433
2019-04-11T23:14:00.224Z,432
2019-04-11T23:15:07.425Z,433
2019-04-11T23:16:15.550Z,433
2019-04-11T23:17:22.745Z,433
2019-04-11T23:18:29.383Z,432
2019-04-11T23:19:36.580Z,432
2019-04-11T23:20:45.596Z,432
2019-04-11T23:21:52.793Z,431
2019-04-11T23:22:59.445Z,432
2019-04-11T23:24:13.031Z,432
2019-04-11T23:25:20.240Z,432
2019-04-11T23:26:27.432Z,431
2019-04-11T23:27:34.647Z,432
2019-04-11T23:28:45.583Z,432
2019-04-11T23:29:53.664Z,432
2019-04-11T23:31:00.869Z,432
2019-04-11T23:32:08.068Z,432
2019-04-11T23:33:14.994Z,432
2019-04-11T23:34:23.602Z,431
2019-04-11T23:35:30.799Z,431
2019-04-11T23:36:37.994Z,430
2019-04-11T23:37:45.195Z,430
2019-04-11T23:38:54.274Z,430
2019-04-11T23:40:01.468Z,430
2019-04-11T23:41:08.389Z,430
2019-04-11T23:42:19.564Z,429
2019-04-11T23:43:27.038Z,429
2019-04-11T23:44:34.244Z,428
2019-04-11T23:45:41.439Z,428
2019-04-11T23:46:53.197Z,428
2019-04-11T23:48:00.121Z,428
2019-04-11T23:49:07.318Z,428
2019-04-11T23:50:14.240Z,428
2019-04-11T23:51:26.496Z,428
2019-04-11T23:52:33.747Z,429
2019-04-11T23:53:40.947Z,429
2019-04-11T23:54:48.145Z,428
2019-04-11T23:55:54.799Z,429
2019-04-11T23:57:02.543Z,428
2019-04-11T23:58:09.512Z,428
2019-04-11T23:59:16.694Z,428
